• Join FlightAware (Why Join?)
  • Login
  • US Flag 
05:40PM EDT


 

Airport Tracker/Info


-or-


 

Live Flight TrackerFlight Track Log ✈ CHQ5079 ✈ 15-May-2013 ✈ KORD - KCID

Flight Track Log - Related Links

Times and Time Zones

All times are in EDT time to prevent confusion due to time zone crossing. See the CHQ5079 flight status page for this flight to view local times or setup timezone preferences in your user account.

Time Position Orientation Groundspeed Altitude Reporting Facility
EDT Latitude Longitude Course Direction KTS MPH feet Rate Location/Type
12:11AM 42.0000 -87.9333 312° West 160 184 1,500  Level Chicago TRACON
12:12AM 42.0333 -87.9833 312° West 222 255 3,100 2,400 Climbing Chicago TRACON
12:14AM 42.0344 -88.2125 270° West 246 283 10,100 2,520 Climbing Chicago Center
12:15AM 42.0047 -88.2983 245° Southwest 258 297 12,200 1,620 Climbing Chicago Center
12:16AM 41.9942 -88.3997 262° West 287 330 13,400 960 Climbing Chicago Center
12:17AM 41.9931 -88.5167 269° West 314 361 14,200 720 Climbing Chicago Center
12:18AM 41.9903 -88.6469 268° West 339 390 14,900 720 Climbing Chicago Center
12:19AM 41.9878 -88.7831 269° West 360 414 15,700 540 Climbing Chicago Center
12:20AM 41.9839 -88.9167 268° West 363 418 16,000 120 Climbing Chicago Center
12:21AM 41.9808 -89.0539 268° West 366 421 16,000  Level Chicago Center
12:22AM 41.9772 -89.1908 268° West 370 426 16,000  Level Chicago Center
12:23AM 41.9736 -89.3539 268° West 365 420 16,000  Level Chicago Center
12:24AM 41.9694 -89.4858 268° West 358 412 16,000  Level Chicago Center
12:25AM 41.9658 -89.6186 268° West 359 413 16,000  Level Chicago Center
12:26AM 41.9619 -89.7511 268° West 358 412 16,000  Level Chicago Center
12:27AM 41.9578 -89.8825 268° West 356 410 16,000 -60 Level Chicago Center
12:28AM 41.9553 -90.0194 269° West 358 412 15,900 -60 Descending Chicago Center
12:29AM 41.9500 -90.1503 267° West 356 410 15,900  Level Chicago Center
12:30AM 41.9461 -90.2792 268° West 349 402 15,900  Level Chicago Center
12:31AM 41.9417 -90.3958 267° West 320 368 15,900 -300 Level Chicago Center
12:32AM 41.9369 -90.5081 267° West 307 353 15,400 -600 Descending Chicago Center
12:33AM 41.9336 -90.6231 268° West 310 357 14,800 -600 Descending Chicago Center
12:34AM 41.9272 -90.7422 266° West 318 366 14,300 -1,200 Descending Chicago Center
12:35AM 41.9231 -90.8469 267° West 290 334 12,500 -1,680 Descending Chicago Center
12:36AM 41.9183 -90.9506 267° West 281 323 11,000 -1,200 Descending Chicago Center
12:37AM 41.9147 -91.0503 267° West 272 313 10,200 -1,380 Descending Chicago Center
12:38AM 41.9108 -91.1464 267° West 262 302 8,300 -1,980 Descending Chicago Center
12:39AM 41.9044 -91.2403 265° West 256 295 6,300 -1,980 Descending Chicago Center
12:40AM 41.8900 -91.3342 258° West 258 297 4,400 -1,200 Descending Chicago Center
12:41AM 41.8792 -91.4414 262° West 249 287 3,900 -540 Descending Chicago Center
12:42AM 41.8811 -91.5172 272° West 220 253 3,400 -720 Descending Chicago Center
12:43AM 41.8847 -91.5917 274° West 207 238 2,500 -960 Descending Chicago Center
12:44AM 41.8828 -91.6511 268° West 187 215 1,500 -840 Descending Chicago Center
12:46AM 41.8844 -91.7092 272° West 166 191 900 -600 Descending Chicago Center